sensor_id;sensor_type;location;lat;lon;timestamp;temperature;humidity
10459;DHT22;5277;48.722;8.736;2023-07-08T00:02:15;18.20;90.40
10459;DHT22;5277;48.722;8.736;2023-07-08T00:04:42;18.20;90.50
10459;DHT22;5277;48.722;8.736;2023-07-08T00:07:15;18.20;90.50
10459;DHT22;5277;48.722;8.736;2023-07-08T00:09:44;18.20;90.90
10459;DHT22;5277;48.722;8.736;2023-07-08T00:12:10;18.20;91.30
10459;DHT22;5277;48.722;8.736;2023-07-08T00:14:36;18.10;91.40
10459;DHT22;5277;48.722;8.736;2023-07-08T00:17:11;18.10;91.70
10459;DHT22;5277;48.722;8.736;2023-07-08T00:19:37;18.00;91.60
10459;DHT22;5277;48.722;8.736;2023-07-08T00:22:12;18.00;91.50
10459;DHT22;5277;48.722;8.736;2023-07-08T00:24:39;17.90;91.40
10459;DHT22;5277;48.722;8.736;2023-07-08T00:27:11;17.90;91.50
10459;DHT22;5277;48.722;8.736;2023-07-08T00:29:37;17.80;91.50
10459;DHT22;5277;48.722;8.736;2023-07-08T00:32:11;17.90;91.70
10459;DHT22;5277;48.722;8.736;2023-07-08T00:34:38;17.80;91.70
10459;DHT22;5277;48.722;8.736;2023-07-08T00:37:04;17.80;91.90
10459;DHT22;5277;48.722;8.736;2023-07-08T00:39:31;17.80;91.70
10459;DHT22;5277;48.722;8.736;2023-07-08T00:41:59;17.70;91.70
10459;DHT22;5277;48.722;8.736;2023-07-08T00:44:25;17.70;91.90
10459;DHT22;5277;48.722;8.736;2023-07-08T00:49:31;17.60;92.30
10459;DHT22;5277;48.722;8.736;2023-07-08T00:52:24;17.60;92.40
10459;DHT22;5277;48.722;8.736;2023-07-08T00:55:09;17.60;92.40
10459;DHT22;5277;48.722;8.736;2023-07-08T00:57:40;17.60;92.60
10459;DHT22;5277;48.722;8.736;2023-07-08T01:00:13;17.50;92.80
10459;DHT22;5277;48.722;8.736;2023-07-08T01:02:49;17.50;92.80
10459;DHT22;5277;48.722;8.736;2023-07-08T01:05:18;17.50;93.20
10459;DHT22;5277;48.722;8.736;2023-07-08T01:07:49;17.40;93.40
10459;DHT22;5277;48.722;8.736;2023-07-08T01:10:20;17.40;93.40
10459;DHT22;5277;48.722;8.736;2023-07-08T01:12:52;17.40;93.40
10459;DHT22;5277;48.722;8.736;2023-07-08T01:15:21;17.30;93.20
10459;DHT22;5277;48.722;8.736;2023-07-08T01:17:48;17.20;93.30
10459;DHT22;5277;48.722;8.736;2023-07-08T01:20:18;17.20;93.30
10459;DHT22;5277;48.722;8.736;2023-07-08T01:22:44;17.10;93.30
10459;DHT22;5277;48.722;8.736;2023-07-08T01:25:11;17.10;93.60
10459;DHT22;5277;48.722;8.736;2023-07-08T01:27:45;17.10;93.50
10459;DHT22;5277;48.722;8.736;2023-07-08T01:30:14;17.00;93.40
10459;DHT22;5277;48.722;8.736;2023-07-08T01:32:49;16.90;93.80
10459;DHT22;5277;48.722;8.736;2023-07-08T01:35:16;16.90;93.90
10459;DHT22;5277;48.722;8.736;2023-07-08T01:37:58;16.80;94.50
10459;DHT22;5277;48.722;8.736;2023-07-08T01:42:50;16.60;94.60
10459;DHT22;5277;48.722;8.736;2023-07-08T01:45:18;16.60;94.60
10459;DHT22;5277;48.722;8.736;2023-07-08T01:47:48;16.60;94.30
10459;DHT22;5277;48.722;8.736;2023-07-08T01:50:15;16.60;94.10
10459;DHT22;5277;48.722;8.736;2023-07-08T01:52:41;16.60;94.20
10459;DHT22;5277;48.722;8.736;2023-07-08T01:55:07;16.70;94.20
10459;DHT22;5277;48.722;8.736;2023-07-08T01:57:33;16.60;94.10
10459;DHT22;5277;48.722;8.736;2023-07-08T01:59:58;16.60;94.50
10459;DHT22;5277;48.722;8.736;2023-07-08T02:02:25;16.60;94.50
10459;DHT22;5277;48.722;8.736;2023-07-08T02:04:51;16.60;94.80
10459;DHT22;5277;48.722;8.736;2023-07-08T02:07:17;16.70;95.30
10459;DHT22;5277;48.722;8.736;2023-07-08T02:09:42;16.70;95.40
10459;DHT22;5277;48.722;8.736;2023-07-08T02:12:08;16.80;95.50
10459;DHT22;5277;48.722;8.736;2023-07-08T02:14:34;16.80;95.60
10459;DHT22;5277;48.722;8.736;2023-07-08T02:16:59;16.90;95.80
10459;DHT22;5277;48.722;8.736;2023-07-08T02:19:27;16.80;95.50
10459;DHT22;5277;48.722;8.736;2023-07-08T02:21:56;16.80;95.60
10459;DHT22;5277;48.722;8.736;2023-07-08T02:24:26;16.90;95.40
10459;DHT22;5277;48.722;8.736;2023-07-08T02:26:55;16.80;95.30
10459;DHT22;5277;48.722;8.736;2023-07-08T02:29:23;16.90;95.50
10459;DHT22;5277;48.722;8.736;2023-07-08T02:31:52;16.80;95.00
10459;DHT22;5277;48.722;8.736;2023-07-08T02:34:21;16.80;95.10
10459;DHT22;5277;48.722;8.736;2023-07-08T02:36:47;16.80;95.00
10459;DHT22;5277;48.722;8.736;2023-07-08T02:39:12;16.80;94.90
10459;DHT22;5277;48.722;8.736;2023-07-08T02:41:38;16.80;95.00
10459;DHT22;5277;48.722;8.736;2023-07-08T02:44:04;16.70;94.50
10459;DHT22;5277;48.722;8.736;2023-07-08T02:46:29;16.70;94.80
10459;DHT22;5277;48.722;8.736;2023-07-08T02:48:57;16.70;95.30
10459;DHT22;5277;48.722;8.736;2023-07-08T02:51:25;16.70;94.90
10459;DHT22;5277;48.722;8.736;2023-07-08T02:53:53;16.70;94.90
10459;DHT22;5277;48.722;8.736;2023-07-08T02:56:21;16.60;94.60
10459;DHT22;5277;48.722;8.736;2023-07-08T02:58:50;16.50;94.70
10459;DHT22;5277;48.722;8.736;2023-07-08T03:01:19;16.50;94.90
10459;DHT22;5277;48.722;8.736;2023-07-08T03:03:45;16.40;95.00
10459;DHT22;5277;48.722;8.736;2023-07-08T03:06:14;16.40;95.10
10459;DHT22;5277;48.722;8.736;2023-07-08T03:08:42;16.40;95.40
10459;DHT22;5277;48.722;8.736;2023-07-08T03:11:08;16.40;95.40
10459;DHT22;5277;48.722;8.736;2023-07-08T03:13:35;16.40;95.40
10459;DHT22;5277;48.722;8.736;2023-07-08T03:16:02;16.40;95.50
10459;DHT22;5277;48.722;8.736;2023-07-08T03:18:38;16.40;95.60
10459;DHT22;5277;48.722;8.736;2023-07-08T03:21:12;16.50;95.70
10459;DHT22;5277;48.722;8.736;2023-07-08T03:23:40;16.40;95.80
10459;DHT22;5277;48.722;8.736;2023-07-08T03:26:06;16.40;96.10
10459;DHT22;5277;48.722;8.736;2023-07-08T03:28:34;16.30;95.80
10459;DHT22;5277;48.722;8.736;2023-07-08T03:31:00;16.30;95.80
10459;DHT22;5277;48.722;8.736;2023-07-08T03:33:25;16.40;96.30
10459;DHT22;5277;48.722;8.736;2023-07-08T03:35:51;16.30;96.30
10459;DHT22;5277;48.722;8.736;2023-07-08T03:38:22;16.20;96.20
10459;DHT22;5277;48.722;8.736;2023-07-08T03:40:47;16.10;96.30
10459;DHT22;5277;48.722;8.736;2023-07-08T03:43:13;16.20;96.70
10459;DHT22;5277;48.722;8.736;2023-07-08T03:45:38;16.10;96.40
10459;DHT22;5277;48.722;8.736;2023-07-08T03:48:04;16.10;96.70
10459;DHT22;5277;48.722;8.736;2023-07-08T03:50:30;16.10;96.60
10459;DHT22;5277;48.722;8.736;2023-07-08T03:52:56;16.00;96.90
10459;DHT22;5277;48.722;8.736;2023-07-08T03:55:22;16.00;96.60
10459;DHT22;5277;48.722;8.736;2023-07-08T03:57:48;16.00;96.70
10459;DHT22;5277;48.722;8.736;2023-07-08T04:00:14;16.10;96.90
10459;DHT22;5277;48.722;8.736;2023-07-08T04:02:44;16.00;97.00
10459;DHT22;5277;48.722;8.736;2023-07-08T04:05:20;16.00;97.30
10459;DHT22;5277;48.722;8.736;2023-07-08T04:07:49;16.10;97.50
10459;DHT22;5277;48.722;8.736;2023-07-08T04:10:15;16.00;97.40
10459;DHT22;5277;48.722;8.736;2023-07-08T04:12:42;16.00;97.60
10459;DHT22;5277;48.722;8.736;2023-07-08T04:15:09;16.20;97.80
10459;DHT22;5277;48.722;8.736;2023-07-08T04:17:43;16.20;97.90
10459;DHT22;5277;48.722;8.736;2023-07-08T04:20:10;16.20;97.80
10459;DHT22;5277;48.722;8.736;2023-07-08T04:22:37;16.30;97.80
10459;DHT22;5277;48.722;8.736;2023-07-08T04:25:03;16.30;97.80
10459;DHT22;5277;48.722;8.736;2023-07-08T04:27:31;16.40;97.70
10459;DHT22;5277;48.722;8.736;2023-07-08T04:29:57;16.40;97.80
10459;DHT22;5277;48.722;8.736;2023-07-08T04:32:23;16.50;97.70
10459;DHT22;5277;48.722;8.736;2023-07-08T04:34:52;16.60;97.10
10459;DHT22;5277;48.722;8.736;2023-07-08T04:37:21;16.60;97.10
10459;DHT22;5277;48.722;8.736;2023-07-08T04:39:46;16.60;96.80
10459;DHT22;5277;48.722;8.736;2023-07-08T04:42:14;16.70;96.60
10459;DHT22;5277;48.722;8.736;2023-07-08T04:44:43;16.70;96.80
10459;DHT22;5277;48.722;8.736;2023-07-08T04:47:14;16.70;96.50
10459;DHT22;5277;48.722;8.736;2023-07-08T04:49:45;16.80;96.40
10459;DHT22;5277;48.722;8.736;2023-07-08T04:52:12;16.80;96.30
10459;DHT22;5277;48.722;8.736;2023-07-08T04:54:38;16.90;96.80
10459;DHT22;5277;48.722;8.736;2023-07-08T04:57:07;17.00;96.30
10459;DHT22;5277;48.722;8.736;2023-07-08T04:59:35;17.00;96.10
10459;DHT22;5277;48.722;8.736;2023-07-08T05:02:01;17.10;96.40
10459;DHT22;5277;48.722;8.736;2023-07-08T05:04:27;17.20;96.20
10459;DHT22;5277;48.722;8.736;2023-07-08T05:06:52;17.20;96.10
10459;DHT22;5277;48.722;8.736;2023-07-08T05:09:22;17.30;95.90
10459;DHT22;5277;48.722;8.736;2023-07-08T05:11:51;17.40;96.20
10459;DHT22;5277;48.722;8.736;2023-07-08T05:14:20;17.50;96.00
10459;DHT22;5277;48.722;8.736;2023-07-08T05:16:45;17.50;95.60
10459;DHT22;5277;48.722;8.736;2023-07-08T05:19:14;17.60;95.50
10459;DHT22;5277;48.722;8.736;2023-07-08T05:21:40;17.70;95.70
10459;DHT22;5277;48.722;8.736;2023-07-08T05:24:06;17.90;96.40
10459;DHT22;5277;48.722;8.736;2023-07-08T05:26:33;17.90;95.80
10459;DHT22;5277;48.722;8.736;2023-07-08T05:29:00;18.00;95.30
10459;DHT22;5277;48.722;8.736;2023-07-08T05:31:26;18.10;95.40
10459;DHT22;5277;48.722;8.736;2023-07-08T05:33:52;18.30;95.40
10459;DHT22;5277;48.722;8.736;2023-07-08T05:36:18;18.40;95.30
10459;DHT22;5277;48.722;8.736;2023-07-08T05:38:46;18.50;95.00
10459;DHT22;5277;48.722;8.736;2023-07-08T05:41:17;18.60;94.60
10459;DHT22;5277;48.722;8.736;2023-07-08T05:43:55;18.80;93.30
10459;DHT22;5277;48.722;8.736;2023-07-08T05:46:23;19.00;92.80
10459;DHT22;5277;48.722;8.736;2023-07-08T05:48:54;19.10;92.40
10459;DHT22;5277;48.722;8.736;2023-07-08T05:51:20;19.20;92.40
10459;DHT22;5277;48.722;8.736;2023-07-08T05:53:48;19.40;92.40
10459;DHT22;5277;48.722;8.736;2023-07-08T05:56:13;19.50;92.10
10459;DHT22;5277;48.722;8.736;2023-07-08T05:58:39;19.60;91.90
10459;DHT22;5277;48.722;8.736;2023-07-08T06:01:05;19.80;91.80
10459;DHT22;5277;48.722;8.736;2023-07-08T06:03:30;20.00;91.30
10459;DHT22;5277;48.722;8.736;2023-07-08T06:05:56;20.20;90.90
10459;DHT22;5277;48.722;8.736;2023-07-08T06:08:22;20.40;90.60
10459;DHT22;5277;48.722;8.736;2023-07-08T06:10:47;20.50;90.50
10459;DHT22;5277;48.722;8.736;2023-07-08T06:13:16;20.80;90.20
10459;DHT22;5277;48.722;8.736;2023-07-08T06:15:42;21.00;89.00
10459;DHT22;5277;48.722;8.736;2023-07-08T06:18:11;21.20;87.80
10459;DHT22;5277;48.722;8.736;2023-07-08T06:20:39;21.50;86.90
10459;DHT22;5277;48.722;8.736;2023-07-08T06:23:10;21.70;86.30
10459;DHT22;5277;48.722;8.736;2023-07-08T06:25:41;22.10;88.20
10459;DHT22;5277;48.722;8.736;2023-07-08T06:28:09;22.40;85.80
10459;DHT22;5277;48.722;8.736;2023-07-08T06:30:38;22.60;84.50
10459;DHT22;5277;48.722;8.736;2023-07-08T06:33:06;22.80;83.10
10459;DHT22;5277;48.722;8.736;2023-07-08T06:35:35;22.80;82.70
10459;DHT22;5277;48.722;8.736;2023-07-08T06:38:01;22.80;83.00
10459;DHT22;5277;48.722;8.736;2023-07-08T06:40:32;22.80;82.50
10459;DHT22;5277;48.722;8.736;2023-07-08T06:43:02;22.80;82.70
10459;DHT22;5277;48.722;8.736;2023-07-08T06:45:40;22.70;83.50
10459;DHT22;5277;48.722;8.736;2023-07-08T06:48:13;22.60;84.30
10459;DHT22;5277;48.722;8.736;2023-07-08T06:50:54;22.70;84.90
10459;DHT22;5277;48.722;8.736;2023-07-08T06:53:19;22.70;85.40
10459;DHT22;5277;48.722;8.736;2023-07-08T06:55:46;22.70;85.90
10459;DHT22;5277;48.722;8.736;2023-07-08T06:58:14;22.70;86.00
10459;DHT22;5277;48.722;8.736;2023-07-08T07:00:44;22.70;87.70
10459;DHT22;5277;48.722;8.736;2023-07-08T07:03:13;22.60;88.30
10459;DHT22;5277;48.722;8.736;2023-07-08T07:05:42;22.60;88.30
10459;DHT22;5277;48.722;8.736;2023-07-08T07:08:08;22.60;88.20
10459;DHT22;5277;48.722;8.736;2023-07-08T07:10:37;22.70;88.10
10459;DHT22;5277;48.722;8.736;2023-07-08T07:13:03;22.70;86.20
10459;DHT22;5277;48.722;8.736;2023-07-08T07:15:36;22.70;86.60
10459;DHT22;5277;48.722;8.736;2023-07-08T07:18:11;22.80;86.00
10459;DHT22;5277;48.722;8.736;2023-07-08T07:20:46;22.80;86.00
10459;DHT22;5277;48.722;8.736;2023-07-08T07:23:23;22.80;89.00
10459;DHT22;5277;48.722;8.736;2023-07-08T07:25:51;22.90;87.50
10459;DHT22;5277;48.722;8.736;2023-07-08T07:28:37;23.10;84.80
10459;DHT22;5277;48.722;8.736;2023-07-08T07:31:13;23.40;85.30
10459;DHT22;5277;48.722;8.736;2023-07-08T07:33:51;23.50;83.90
10459;DHT22;5277;48.722;8.736;2023-07-08T07:36:16;23.60;84.20
10459;DHT22;5277;48.722;8.736;2023-07-08T07:38:45;23.70;84.80
10459;DHT22;5277;48.722;8.736;2023-07-08T07:41:17;23.80;85.40
10459;DHT22;5277;48.722;8.736;2023-07-08T07:43:47;24.00;82.60
10459;DHT22;5277;48.722;8.736;2023-07-08T07:46:13;24.10;81.50
10459;DHT22;5277;48.722;8.736;2023-07-08T07:49:01;24.30;81.20
10459;DHT22;5277;48.722;8.736;2023-07-08T07:51:27;24.40;81.30
10459;DHT22;5277;48.722;8.736;2023-07-08T07:53:58;24.40;84.00
10459;DHT22;5277;48.722;8.736;2023-07-08T07:56:27;24.20;84.10
10459;DHT22;5277;48.722;8.736;2023-07-08T07:58:55;24.30;83.30
10459;DHT22;5277;48.722;8.736;2023-07-08T08:01:24;24.40;84.00
10459;DHT22;5277;48.722;8.736;2023-07-08T08:03:52;24.50;82.80
10459;DHT22;5277;48.722;8.736;2023-07-08T08:06:18;24.80;81.40
10459;DHT22;5277;48.722;8.736;2023-07-08T08:08:45;24.90;80.30
10459;DHT22;5277;48.722;8.736;2023-07-08T08:11:16;25.10;81.10
10459;DHT22;5277;48.722;8.736;2023-07-08T08:13:45;25.30;80.30
10459;DHT22;5277;48.722;8.736;2023-07-08T08:16:13;25.60;80.00
10459;DHT22;5277;48.722;8.736;2023-07-08T08:18:50;25.80;79.10
10459;DHT22;5277;48.722;8.736;2023-07-08T08:21:21;26.10;78.80
10459;DHT22;5277;48.722;8.736;2023-07-08T08:23:52;26.30;78.10
10459;DHT22;5277;48.722;8.736;2023-07-08T08:26:23;26.50;77.20
10459;DHT22;5277;48.722;8.736;2023-07-08T08:28:52;26.70;75.90
10459;DHT22;5277;48.722;8.736;2023-07-08T08:31:44;26.90;75.00
10459;DHT22;5277;48.722;8.736;2023-07-08T08:34:09;27.20;73.60
10459;DHT22;5277;48.722;8.736;2023-07-08T08:36:35;27.30;74.50
10459;DHT22;5277;48.722;8.736;2023-07-08T08:39:01;27.50;68.70
10459;DHT22;5277;48.722;8.736;2023-07-08T08:41:31;27.70;69.40
10459;DHT22;5277;48.722;8.736;2023-07-08T08:43:58;28.00;67.50
10459;DHT22;5277;48.722;8.736;2023-07-08T08:46:34;28.30;66.00
10459;DHT22;5277;48.722;8.736;2023-07-08T08:51:31;29.00;63.80
10459;DHT22;5277;48.722;8.736;2023-07-08T08:53:57;29.40;61.50
10459;DHT22;5277;48.722;8.736;2023-07-08T08:57:43;29.80;59.40
10459;DHT22;5277;48.722;8.736;2023-07-08T09:04:53;30.20;57.60
10459;DHT22;5277;48.722;8.736;2023-07-08T09:07:23;30.10;57.10
10459;DHT22;5277;48.722;8.736;2023-07-08T09:10:03;30.00;57.20
10459;DHT22;5277;48.722;8.736;2023-07-08T09:12:30;29.80;58.40
10459;DHT22;5277;48.722;8.736;2023-07-08T09:14:57;29.70;58.50
10459;DHT22;5277;48.722;8.736;2023-07-08T09:17:28;29.60;59.20
10459;DHT22;5277;48.722;8.736;2023-07-08T09:22:44;29.10;58.90
10459;DHT22;5277;48.722;8.736;2023-07-08T09:27:43;29.30;58.90
10459;DHT22;5277;48.722;8.736;2023-07-08T09:30:21;29.50;58.30
10459;DHT22;5277;48.722;8.736;2023-07-08T09:32:48;29.70;57.10
10459;DHT22;5277;48.722;8.736;2023-07-08T09:35:29;29.80;55.90
10459;DHT22;5277;48.722;8.736;2023-07-08T09:38:07;30.20;56.40
10459;DHT22;5277;48.722;8.736;2023-07-08T09:40:33;30.50;55.60
10459;DHT22;5277;48.722;8.736;2023-07-08T09:43:02;30.80;54.60
10459;DHT22;5277;48.722;8.736;2023-07-08T09:45:41;31.10;54.50
10459;DHT22;5277;48.722;8.736;2023-07-08T09:48:29;31.30;53.60
10459;DHT22;5277;48.722;8.736;2023-07-08T09:51:04;31.40;52.10
10459;DHT22;5277;48.722;8.736;2023-07-08T09:53:36;31.60;52.60
10459;DHT22;5277;48.722;8.736;2023-07-08T09:56:08;31.90;51.60
10459;DHT22;5277;48.722;8.736;2023-07-08T09:58:41;32.10;51.20
10459;DHT22;5277;48.722;8.736;2023-07-08T10:01:23;32.50;49.90
10459;DHT22;5277;48.722;8.736;2023-07-08T10:03:51;32.70;49.50
10459;DHT22;5277;48.722;8.736;2023-07-08T10:06:27;33.00;48.70
10459;DHT22;5277;48.722;8.736;2023-07-08T10:09:04;33.30;48.80
10459;DHT22;5277;48.722;8.736;2023-07-08T10:12:08;33.60;47.80
10459;DHT22;5277;48.722;8.736;2023-07-08T10:14:41;33.80;47.40
10459;DHT22;5277;48.722;8.736;2023-07-08T10:17:21;34.00;45.80
10459;DHT22;5277;48.722;8.736;2023-07-08T10:19:47;34.20;44.20
10459;DHT22;5277;48.722;8.736;2023-07-08T10:49:55;35.70;41.90
10459;DHT22;5277;48.722;8.736;2023-07-08T11:01:03;34.30;44.30
10459;DHT22;5277;48.722;8.736;2023-07-08T11:03:59;34.80;42.10
10459;DHT22;5277;48.722;8.736;2023-07-08T11:06:52;35.50;42.30
10459;DHT22;5277;48.722;8.736;2023-07-08T11:09:42;36.20;40.70
10459;DHT22;5277;48.722;8.736;2023-07-08T11:17:55;37.10;39.00
10459;DHT22;5277;48.722;8.736;2023-07-08T11:23:06;37.90;36.60
10459;DHT22;5277;48.722;8.736;2023-07-08T11:25:34;38.30;37.00
10459;DHT22;5277;48.722;8.736;2023-07-08T11:28:03;38.70;36.70
10459;DHT22;5277;48.722;8.736;2023-07-08T11:30:33;39.00;36.10
10459;DHT22;5277;48.722;8.736;2023-07-08T11:33:06;38.80;35.60
10459;DHT22;5277;48.722;8.736;2023-07-08T11:35:46;38.20;35.80
10459;DHT22;5277;48.722;8.736;2023-07-08T11:38:16;37.40;36.80
10459;DHT22;5277;48.722;8.736;2023-07-08T11:41:00;36.60;37.80
10459;DHT22;5277;48.722;8.736;2023-07-08T11:46:15;35.30;40.20
10459;DHT22;5277;48.722;8.736;2023-07-08T11:48:47;35.60;40.40
10459;DHT22;5277;48.722;8.736;2023-07-08T11:51:37;36.10;40.50
10459;DHT22;5277;48.722;8.736;2023-07-08T11:54:13;36.80;39.00
10459;DHT22;5277;48.722;8.736;2023-07-08T11:56:58;37.40;38.30
10459;DHT22;5277;48.722;8.736;2023-07-08T11:59:31;38.40;37.70
10459;DHT22;5277;48.722;8.736;2023-07-08T12:02:03;38.50;37.10
10459;DHT22;5277;48.722;8.736;2023-07-08T12:04:32;37.70;36.70
10459;DHT22;5277;48.722;8.736;2023-07-08T12:07:22;37.20;37.60
10459;DHT22;5277;48.722;8.736;2023-07-08T12:10:22;36.40;37.80
10459;DHT22;5277;48.722;8.736;2023-07-08T12:12:50;35.90;40.50
10459;DHT22;5277;48.722;8.736;2023-07-08T12:15:31;36.10;40.50
10459;DHT22;5277;48.722;8.736;2023-07-08T12:18:00;36.90;39.60
10459;DHT22;5277;48.722;8.736;2023-07-08T12:20:32;37.20;38.30
10459;DHT22;5277;48.722;8.736;2023-07-08T12:22:58;37.40;38.30
10459;DHT22;5277;48.722;8.736;2023-07-08T12:25:30;37.10;39.80
10459;DHT22;5277;48.722;8.736;2023-07-08T12:27:57;36.80;38.90
10459;DHT22;5277;48.722;8.736;2023-07-08T12:30:23;37.50;39.90
10459;DHT22;5277;48.722;8.736;2023-07-08T12:32:51;38.00;37.40
10459;DHT22;5277;48.722;8.736;2023-07-08T12:35:23;38.50;36.10
10459;DHT22;5277;48.722;8.736;2023-07-08T12:37:55;39.00;35.60
10459;DHT22;5277;48.722;8.736;2023-07-08T12:40:23;39.20;35.60
10459;DHT22;5277;48.722;8.736;2023-07-08T12:42:50;39.80;34.90
10459;DHT22;5277;48.722;8.736;2023-07-08T12:45:20;40.40;34.60
10459;DHT22;5277;48.722;8.736;2023-07-08T12:47:46;40.50;32.70
10459;DHT22;5277;48.722;8.736;2023-07-08T12:50:15;40.90;33.20
10459;DHT22;5277;48.722;8.736;2023-07-08T12:52:46;41.10;32.60
10459;DHT22;5277;48.722;8.736;2023-07-08T12:55:14;41.30;31.60
10459;DHT22;5277;48.722;8.736;2023-07-08T12:57:42;41.40;32.10
10459;DHT22;5277;48.722;8.736;2023-07-08T13:02:48;41.90;31.60
10459;DHT22;5277;48.722;8.736;2023-07-08T13:05:16;41.60;32.20
10459;DHT22;5277;48.722;8.736;2023-07-08T13:07:43;41.90;31.30
10459;DHT22;5277;48.722;8.736;2023-07-08T13:10:20;41.70;31.00
10459;DHT22;5277;48.722;8.736;2023-07-08T13:12:48;41.70;30.10
10459;DHT22;5277;48.722;8.736;2023-07-08T13:15:24;41.20;32.00
10459;DHT22;5277;48.722;8.736;2023-07-08T13:17:51;40.50;33.00
10459;DHT22;5277;48.722;8.736;2023-07-08T13:20:17;39.70;32.60
10459;DHT22;5277;48.722;8.736;2023-07-08T13:22:51;38.90;33.30
10459;DHT22;5277;48.722;8.736;2023-07-08T13:25:18;38.10;34.20
10459;DHT22;5277;48.722;8.736;2023-07-08T13:27:55;37.30;35.90
10459;DHT22;5277;48.722;8.736;2023-07-08T13:30:25;36.60;36.90
10459;DHT22;5277;48.722;8.736;2023-07-08T13:32:53;35.90;38.20
10459;DHT22;5277;48.722;8.736;2023-07-08T13:37:48;35.00;38.50
10459;DHT22;5277;48.722;8.736;2023-07-08T13:40:16;34.40;39.30
10459;DHT22;5277;48.722;8.736;2023-07-08T13:42:52;34.10;40.30
10459;DHT22;5277;48.722;8.736;2023-07-08T13:45:26;33.90;40.60
10459;DHT22;5277;48.722;8.736;2023-07-08T13:48:08;33.60;41.20
10459;DHT22;5277;48.722;8.736;2023-07-08T13:51:22;33.30;41.40
10459;DHT22;5277;48.722;8.736;2023-07-08T13:56:22;32.80;41.60
10459;DHT22;5277;48.722;8.736;2023-07-08T13:58:51;32.60;42.70
10459;DHT22;5277;48.722;8.736;2023-07-08T14:01:22;32.40;42.10
10459;DHT22;5277;48.722;8.736;2023-07-08T14:03:51;32.30;44.30
10459;DHT22;5277;48.722;8.736;2023-07-08T14:06:22;32.10;43.00
10459;DHT22;5277;48.722;8.736;2023-07-08T14:08:48;32.00;44.00
10459;DHT22;5277;48.722;8.736;2023-07-08T14:11:14;31.80;44.30
10459;DHT22;5277;48.722;8.736;2023-07-08T14:13:40;31.80;44.30
10459;DHT22;5277;48.722;8.736;2023-07-08T14:16:27;31.70;43.80
10459;DHT22;5277;48.722;8.736;2023-07-08T14:19:07;31.80;44.10
10459;DHT22;5277;48.722;8.736;2023-07-08T14:21:35;31.70;45.60
10459;DHT22;5277;48.722;8.736;2023-07-08T14:24:13;31.70;46.10
10459;DHT22;5277;48.722;8.736;2023-07-08T14:26:44;31.70;45.00
10459;DHT22;5277;48.722;8.736;2023-07-08T14:29:14;31.60;46.10
10459;DHT22;5277;48.722;8.736;2023-07-08T14:31:41;31.50;45.30
10459;DHT22;5277;48.722;8.736;2023-07-08T14:34:21;31.50;46.20
10459;DHT22;5277;48.722;8.736;2023-07-08T14:36:51;31.40;46.10
10459;DHT22;5277;48.722;8.736;2023-07-08T14:39:17;31.40;45.90
10459;DHT22;5277;48.722;8.736;2023-07-08T14:41:54;31.40;46.80
10459;DHT22;5277;48.722;8.736;2023-07-08T14:44:25;31.20;47.20
10459;DHT22;5277;48.722;8.736;2023-07-08T14:46:54;31.20;47.70
10459;DHT22;5277;48.722;8.736;2023-07-08T14:49:24;31.10;47.90
10459;DHT22;5277;48.722;8.736;2023-07-08T14:51:52;31.00;47.70
10459;DHT22;5277;48.722;8.736;2023-07-08T14:54:21;30.90;50.20
10459;DHT22;5277;48.722;8.736;2023-07-08T14:56:57;30.80;48.70
10459;DHT22;5277;48.722;8.736;2023-07-08T14:59:30;30.70;48.00
10459;DHT22;5277;48.722;8.736;2023-07-08T15:01:58;30.50;48.90
10459;DHT22;5277;48.722;8.736;2023-07-08T15:04:39;30.40;49.20
10459;DHT22;5277;48.722;8.736;2023-07-08T15:07:11;30.30;49.30
10459;DHT22;5277;48.722;8.736;2023-07-08T15:09:37;30.30;50.40
10459;DHT22;5277;48.722;8.736;2023-07-08T15:12:09;30.20;50.10
10459;DHT22;5277;48.722;8.736;2023-07-08T15:14:38;30.10;50.60
10459;DHT22;5277;48.722;8.736;2023-07-08T15:17:15;30.00;50.60
10459;DHT22;5277;48.722;8.736;2023-07-08T15:19:46;30.00;50.80
10459;DHT22;5277;48.722;8.736;2023-07-08T15:22:20;30.00;51.60
10459;DHT22;5277;48.722;8.736;2023-07-08T15:24:57;29.90;52.10
10459;DHT22;5277;48.722;8.736;2023-07-08T15:27:31;29.70;52.10
10459;DHT22;5277;48.722;8.736;2023-07-08T15:30:24;29.60;52.10
10459;DHT22;5277;48.722;8.736;2023-07-08T15:32:53;29.60;52.60
10459;DHT22;5277;48.722;8.736;2023-07-08T15:35:32;29.50;52.80
10459;DHT22;5277;48.722;8.736;2023-07-08T15:38:13;29.40;53.40
10459;DHT22;5277;48.722;8.736;2023-07-08T15:40:42;29.30;53.80
10459;DHT22;5277;48.722;8.736;2023-07-08T15:43:14;29.20;54.10
10459;DHT22;5277;48.722;8.736;2023-07-08T15:45:40;29.10;54.30
10459;DHT22;5277;48.722;8.736;2023-07-08T15:48:16;29.10;55.50
10459;DHT22;5277;48.722;8.736;2023-07-08T15:51:00;29.00;54.10
10459;DHT22;5277;48.722;8.736;2023-07-08T15:53:37;29.00;53.60
10459;DHT22;5277;48.722;8.736;2023-07-08T15:56:03;28.80;53.10
10459;DHT22;5277;48.722;8.736;2023-07-08T15:58:37;28.80;52.70
10459;DHT22;5277;48.722;8.736;2023-07-08T16:01:08;28.80;54.60
10459;DHT22;5277;48.722;8.736;2023-07-08T16:06:17;28.80;54.00
10459;DHT22;5277;48.722;8.736;2023-07-08T16:08:49;28.80;54.40
10459;DHT22;5277;48.722;8.736;2023-07-08T16:11:28;28.90;54.50
10459;DHT22;5277;48.722;8.736;2023-07-08T16:13:54;28.90;54.60
10459;DHT22;5277;48.722;8.736;2023-07-08T16:16:27;28.80;55.50
10459;DHT22;5277;48.722;8.736;2023-07-08T16:18:59;29.00;53.00
10459;DHT22;5277;48.722;8.736;2023-07-08T16:21:34;29.00;54.20
10459;DHT22;5277;48.722;8.736;2023-07-08T16:24:08;29.00;53.20
10459;DHT22;5277;48.722;8.736;2023-07-08T16:26:39;29.10;53.20
10459;DHT22;5277;48.722;8.736;2023-07-08T16:29:17;29.10;55.00
10459;DHT22;5277;48.722;8.736;2023-07-08T16:31:47;29.10;54.80
10459;DHT22;5277;48.722;8.736;2023-07-08T16:34:13;29.00;54.30
10459;DHT22;5277;48.722;8.736;2023-07-08T16:36:47;29.10;53.90
10459;DHT22;5277;48.722;8.736;2023-07-08T16:39:18;29.00;54.10
10459;DHT22;5277;48.722;8.736;2023-07-08T16:41:52;28.90;54.00
10459;DHT22;5277;48.722;8.736;2023-07-08T16:44:29;28.90;53.90
10459;DHT22;5277;48.722;8.736;2023-07-08T16:47:06;28.90;54.90
10459;DHT22;5277;48.722;8.736;2023-07-08T16:49:40;28.90;54.40
10459;DHT22;5277;48.722;8.736;2023-07-08T16:52:16;28.90;54.70
10459;DHT22;5277;48.722;8.736;2023-07-08T16:54:59;28.90;54.40
10459;DHT22;5277;48.722;8.736;2023-07-08T16:57:41;29.00;54.50
10459;DHT22;5277;48.722;8.736;2023-07-08T17:00:19;28.90;56.10
10459;DHT22;5277;48.722;8.736;2023-07-08T17:02:49;28.90;55.30
10459;DHT22;5277;48.722;8.736;2023-07-08T17:05:34;28.80;54.30
10459;DHT22;5277;48.722;8.736;2023-07-08T17:08:07;28.90;54.60
10459;DHT22;5277;48.722;8.736;2023-07-08T17:10:34;28.80;54.50
10459;DHT22;5277;48.722;8.736;2023-07-08T17:13:23;28.80;54.50
10459;DHT22;5277;48.722;8.736;2023-07-08T17:15:56;28.80;56.50
10459;DHT22;5277;48.722;8.736;2023-07-08T17:18:28;28.70;56.00
10459;DHT22;5277;48.722;8.736;2023-07-08T17:21:13;28.70;56.80
10459;DHT22;5277;48.722;8.736;2023-07-08T17:23:47;28.70;56.80
10459;DHT22;5277;48.722;8.736;2023-07-08T17:26:18;28.70;57.20